Time;durP1;ratioP1;P1;durP2;ratioP2;P2;SDS_P1;SDS_P2;PMS_P1;PMS_P2;Temp;Humidity;BMP_temperature;BMP_pressure;BME280_temperature;BME280_humidity;BME280_pressure;Samples;Min_cycle;Max_cycle;Signal;HPM_P1;HPM_P2
2022/08/28 00:00:28;;;;;;;62.03;41.60;;;;;;;25.79;36.66;99830.81;5087752;28;20122;-72
2022/08/28 00:02:54;;;;;;;59.13;41.55;;;;;;;25.77;36.93;99830.19;5087612;28;20028;-71
2022/08/28 00:05:23;;;;;;;70.13;42.30;;;;;;;25.75;36.94;99830.38;5086777;28;20031;-70
2022/08/28 00:07:49;;;;;;;62.95;40.40;;;;;;;25.71;36.97;99823.75;5081864;28;20223;-72
2022/08/28 00:10:17;;;;;;;54.80;42.15;;;;;;;25.68;36.70;99821.47;5067539;28;20029;-70
2022/08/28 00:12:44;;;;;;;57.40;42.05;;;;;;;25.66;36.90;99820.03;5069230;28;20218;-74
2022/08/28 00:15:14;;;;;;;64.85;42.38;;;;;;;25.62;36.91;99816.06;5087290;28;20039;-71
2022/08/28 00:17:41;;;;;;;69.18;43.63;;;;;;;25.63;36.89;99810.41;5087226;28;20031;-71
2022/08/28 00:20:09;;;;;;;62.00;41.28;;;;;;;25.63;37.08;99812.31;5085801;28;20044;-73
2022/08/28 00:22:37;;;;;;;64.82;43.78;;;;;;;25.62;37.12;99806.03;5086810;28;20036;-71
2022/08/28 00:25:04;;;;;;;68.50;42.08;;;;;;;25.60;37.17;99813.56;5087091;28;20040;-71
2022/08/28 00:30:15;;;;;;;57.33;40.67;;;;;;;25.55;37.31;99808.78;5087471;28;20031;-71
2022/08/28 00:32:41;;;;;;;61.70;42.20;;;;;;;25.54;37.33;99804.41;5087322;28;20036;-71
2022/08/28 00:35:06;;;;;;;60.55;41.13;;;;;;;25.54;37.26;99806.28;5087321;28;20077;-71
2022/08/28 00:37:32;;;;;;;63.35;41.78;;;;;;;25.56;37.15;99798.78;5086808;28;20138;-72
2022/08/28 00:39:58;;;;;;;59.42;41.40;;;;;;;25.59;37.00;99799.19;5087021;28;20153;-73
2022/08/28 00:42:23;;;;;;;60.35;42.17;;;;;;;25.57;37.14;99803.97;5087268;28;20051;-71
2022/08/28 00:44:49;;;;;;;60.00;42.00;;;;;;;25.58;37.05;99792.09;5087281;28;20042;-70
2022/08/28 00:47:14;;;;;;;59.72;42.33;;;;;;;25.63;36.71;99793.34;5086135;28;20325;-71
2022/08/28 00:49:48;;;;;;;60.05;40.72;;;;;;;25.62;37.01;99797.09;5087142;28;20028;-70
2022/08/28 00:52:14;;;;;;;58.70;42.15;;;;;;;25.58;37.01;99800.22;5087153;28;20028;-69
2022/08/28 00:54:51;;;;;;;66.82;45.08;;;;;;;25.55;36.85;99797.94;5086410;28;20256;-71
2022/08/28 00:57:43;;;;;;;74.28;46.58;;;;;;;25.57;36.89;99800.44;5087086;28;20032;-70
2022/08/28 01:00:18;;;;;;;65.55;44.08;;;;;;;25.61;36.88;99790.00;5082859;28;20044;-69
2022/08/28 01:02:44;;;;;;;70.75;46.40;;;;;;;25.60;36.80;99794.59;5087020;28;20028;-70
2022/08/28 01:05:09;;;;;;;59.65;44.83;;;;;;;25.59;36.81;99793.75;5086851;28;20031;-72
2022/08/28 01:07:38;;;;;;;68.13;47.83;;;;;;;25.62;36.91;99799.81;5086635;28;20020;-69
2022/08/28 01:10:08;;;;;;;68.25;46.70;;;;;;;25.59;36.83;99791.06;5066981;28;20102;-72
2022/08/28 01:12:34;;;;;;;83.63;54.57;;;;;;;25.61;36.52;99792.72;5066931;28;20024;-72
2022/08/28 01:15:08;;;;;;;72.25;48.83;;;;;;;25.65;36.68;99780.41;5080663;28;20103;-71
2022/08/28 01:17:34;;;;;;;73.60;49.75;;;;;;;25.65;36.73;99778.53;5088223;28;20028;-71
2022/08/28 01:20:08;;;;;;;65.80;49.17;;;;;;;25.67;36.65;99786.44;5090423;28;20062;-69
2022/08/28 01:22:43;;;;;;;72.53;51.00;;;;;;;25.65;36.94;99783.94;5090444;28;20031;-70
2022/08/28 01:25:18;;;;;;;75.95;49.47;;;;;;;25.60;36.81;99778.31;5090249;28;20044;-71
2022/08/28 01:27:44;;;;;;;82.13;53.65;;;;;;;25.53;37.22;99782.94;5090146;28;20024;-69
2022/08/28 01:30:14;;;;;;;75.82;51.05;;;;;;;25.50;37.04;99775.25;5090359;28;20142;-70
2022/08/28 01:32:46;;;;;;;77.95;52.85;;;;;;;25.47;37.16;99779.22;5090067;28;20013;-71
2022/08/28 01:35:15;;;;;;;76.35;54.17;;;;;;;25.43;37.43;99769.84;5090250;28;20035;-70
2022/08/28 01:37:41;;;;;;;75.30;53.05;;;;;;;25.40;37.63;99773.78;5090136;28;20248;-71
2022/08/28 01:40:09;;;;;;;73.13;51.97;;;;;;;25.40;37.54;99773.78;5090294;28;20028;-72
2022/08/28 01:42:39;;;;;;;79.28;56.42;;;;;;;25.39;37.67;99768.56;5089855;28;20035;-70
2022/08/28 01:45:09;;;;;;;81.72;57.90;;;;;;;25.38;37.52;99769.63;5090184;28;20137;-70
2022/08/28 01:47:38;;;;;;;77.07;55.97;;;;;;;25.35;37.61;99770.06;5089986;28;20024;-71
2022/08/28 01:50:05;;;;;;;84.35;57.97;;;;;;;25.32;37.79;99763.19;5090084;28;20090;-72
2022/08/28 01:52:31;;;;;;;87.90;61.55;;;;;;;25.33;37.58;99761.31;5089265;28;20043;-72
2022/08/28 01:54:57;;;;;;;79.82;54.67;;;;;;;25.33;37.35;99762.13;5089704;28;20021;-69
2022/08/28 01:57:22;;;;;;;83.95;58.25;;;;;;;25.35;37.46;99764.66;5089780;28;20013;-71
2022/08/28 01:59:49;;;;;;;84.22;58.10;;;;;;;25.37;37.35;99757.13;5089916;28;20248;-71
2022/08/28 02:02:16;;;;;;;82.50;55.85;;;;;;;25.38;37.24;99761.50;5089780;28;20016;-70
2022/08/28 02:04:42;;;;;;;90.88;64.28;;;;;;;25.37;37.40;99757.97;5089460;28;20041;-70
2022/08/28 02:07:08;;;;;;;79.18;57.35;;;;;;;25.35;37.26;99764.66;5089752;28;20032;-71
2022/08/28 02:09:33;;;;;;;90.75;61.83;;;;;;;25.38;37.14;99767.75;5086480;28;20044;-68
2022/08/28 02:11:59;;;;;;;82.78;57.65;;;;;;;25.39;37.08;99774.84;5089707;28;20020;-71
2022/08/28 02:14:24;;;;;;;83.55;60.67;;;;;;;25.44;37.09;99771.53;5089490;28;20133;-71
2022/08/28 02:16:50;;;;;;;78.22;56.45;;;;;;;25.46;37.20;99766.72;5089608;28;20070;-72
2022/08/28 02:19:16;;;;;;;82.13;60.90;;;;;;;25.45;37.21;99767.75;5089073;28;20182;-71
2022/08/28 02:21:41;;;;;;;87.00;58.05;;;;;;;25.45;37.05;99765.06;5089505;28;20024;-70
2022/08/28 02:24:07;;;;;;;85.05;57.85;;;;;;;25.44;37.19;99758.78;5089394;28;20074;-71
2022/08/28 02:26:33;;;;;;;83.30;58.40;;;;;;;25.47;36.94;99759.41;5089369;28;20054;-70
2022/08/28 02:28:58;;;;;;;75.70;55.70;;;;;;;25.44;37.08;99757.97;5087993;28;20020;-71
2022/08/28 02:31:25;;;;;;;73.43;54.17;;;;;;;25.44;37.02;99756.09;5089333;28;20028;-71
2022/08/28 02:33:51;;;;;;;83.90;57.55;;;;;;;25.46;37.00;99755.88;5089206;28;20032;-71
2022/08/28 02:36:17;;;;;;;76.28;55.03;;;;;;;25.42;36.98;99755.50;5089010;28;20020;-73
2022/08/28 02:38:44;;;;;;;79.97;58.58;;;;;;;25.42;37.13;99750.06;5088559;28;20024;-72
2022/08/28 02:41:10;;;;;;;79.97;56.83;;;;;;;25.42;37.09;99755.50;5089106;28;20191;-72
2022/08/28 02:43:36;;;;;;;88.22;59.75;;;;;;;25.44;36.99;99755.25;5088983;28;20086;-70
2022/08/28 02:46:03;;;;;;;74.00;52.90;;;;;;;25.43;36.95;99753.59;5086026;28;20080;-72
2022/08/28 02:48:35;;;;;;;76.57;53.83;;;;;;;25.43;37.01;99759.00;5077942;28;20032;-70
2022/08/28 02:51:07;;;;;;;78.68;57.65;;;;;;;25.41;37.04;99759.25;5088948;28;20294;-70
2022/08/28 02:53:33;;;;;;;68.18;49.83;;;;;;;25.39;37.09;99753.16;5088339;28;20051;-70
2022/08/28 02:55:59;;;;;;;80.78;56.38;;;;;;;25.40;37.09;99756.69;5088491;28;20138;-71
2022/08/28 02:58:28;;;;;;;78.20;54.95;;;;;;;25.38;37.34;99751.50;5088314;28;20039;-71
2022/08/28 03:00:55;;;;;;;78.32;55.25;;;;;;;25.37;37.17;99754.41;5088703;28;20166;-72
2022/08/28 03:03:21;;;;;;;80.03;55.28;;;;;;;25.34;37.24;99746.72;5088603;28;20035;-71
2022/08/28 03:05:46;;;;;;;76.15;53.97;;;;;;;25.33;37.42;99748.59;5088630;28;20134;-70
2022/08/28 03:08:12;;;;;;;76.03;54.28;;;;;;;25.31;37.63;99745.25;5085169;28;20189;-69
2022/08/28 03:10:37;;;;;;;71.18;52.55;;;;;;;25.30;37.65;99746.31;5088465;28;20048;-69
2022/08/28 03:13:04;;;;;;;80.35;55.53;;;;;;;25.28;37.71;99743.81;5088399;28;20176;-71
2022/08/28 03:15:30;;;;;;;74.80;51.63;;;;;;;25.27;37.37;99749.47;5087846;28;20021;-71
2022/08/28 03:17:55;;;;;;;77.45;52.47;;;;;;;25.27;37.82;99744.03;5088290;28;20193;-70
2022/08/28 03:20:21;;;;;;;72.60;50.63;;;;;;;25.25;37.63;99748.84;5088126;28;20072;-70
2022/08/28 03:25:30;;;;;;;67.70;50.45;;;;;;;25.21;37.79;99745.72;5088000;28;20313;-71
2022/08/28 03:27:56;;;;;;;64.35;46.42;;;;;;;25.22;37.66;99747.38;5087847;28;20024;-72
2022/08/28 03:30:22;;;;;;;75.90;51.85;;;;;;;25.23;37.82;99746.31;5087868;28;20086;-69
2022/08/28 03:32:48;;;;;;;71.68;49.03;;;;;;;25.24;37.90;99748.00;5088000;28;20229;-71
2022/08/28 03:35:14;;;;;;;82.38;52.78;;;;;;;25.25;37.60;99743.41;5085724;28;20066;-72
2022/08/28 03:37:39;;;;;;;70.20;50.15;;;;;;;25.24;38.03;99739.06;5067978;28;20041;-71
2022/08/28 03:40:07;;;;;;;69.18;50.42;;;;;;;25.23;37.99;99738.19;5067778;28;20071;-71
2022/08/28 03:42:33;;;;;;;76.05;49.72;;;;;;;25.20;37.99;99735.94;5079712;28;20051;-72
2022/08/28 03:44:58;;;;;;;70.80;50.25;;;;;;;25.19;38.17;99734.28;5086426;28;20016;-72
2022/08/28 03:47:23;;;;;;;80.18;51.35;;;;;;;25.18;37.99;99737.19;5087488;28;20031;-71
2022/08/28 03:49:58;;;;;;;73.47;49.58;;;;;;;25.16;38.22;99737.41;5087869;28;20020;-72
2022/08/28 03:52:24;;;;;;;69.15;49.13;;;;;;;25.14;38.24;99732.22;5070364;28;20137;-71
2022/08/28 03:54:50;;;;;;;71.50;49.95;;;;;;;25.13;38.13;99735.09;5087365;28;20074;-72
2022/08/28 03:57:20;;;;;;;68.90;50.35;;;;;;;25.16;38.51;99725.72;5087662;28;20039;-69
2022/08/28 03:59:47;;;;;;;64.43;47.92;;;;;;;25.13;38.55;99733.25;5087170;28;20016;-70
2022/08/28 04:02:13;;;;;;;72.32;51.30;;;;;;;25.14;38.55;99731.34;5087694;28;20092;-71
2022/08/28 04:04:38;;;;;;;67.57;48.35;;;;;;;25.13;38.42;99729.69;5087617;28;20016;-71
2022/08/28 04:07:04;;;;;;;63.15;47.88;;;;;;;25.11;38.58;99729.06;5087672;28;20020;-70
2022/08/28 04:09:29;;;;;;;70.07;48.45;;;;;;;25.11;38.69;99734.47;5086876;28;20028;-71
2022/08/28 04:11:55;;;;;;;67.47;47.30;;;;;;;25.11;38.85;99739.91;5087584;28;20024;-73
2022/08/28 04:14:20;;;;;;;62.63;44.35;;;;;;;25.13;38.71;99741.38;5087443;28;20032;-70
2022/08/28 04:16:47;;;;;;;62.95;45.25;;;;;;;25.17;38.63;99747.19;5087507;28;20083;-70
2022/08/28 04:19:13;;;;;;;65.40;46.45;;;;;;;25.18;38.40;99743.44;5086681;28;20017;-71
2022/08/28 04:21:38;;;;;;;66.18;46.85;;;;;;;25.18;38.65;99742.59;5087535;28;20145;-71
2022/08/28 04:24:04;;;;;;;63.92;42.72;;;;;;;25.17;38.63;99739.06;5087680;28;20047;-71
2022/08/28 04:26:35;;;;;;;77.93;46.25;;;;;;;25.17;38.65;99733.66;5069295;28;20025;-72
2022/08/28 04:29:00;;;;;;;;;;;;;;;25.09;38.97;99736.56;5079015;28;20063;-70
2022/08/28 04:31:27;;;;;;;68.28;47.53;;;;;;;25.11;39.01;99729.06;5087437;28;19935;-71
2022/08/28 04:33:52;;;;;;;64.03;46.30;;;;;;;25.12;38.88;99728.03;5087351;28;20201;-70
2022/08/28 04:36:18;;;;;;;66.85;46.38;;;;;;;25.13;38.79;99725.13;5087182;28;20036;-70
2022/08/28 04:38:44;;;;;;;68.80;45.67;;;;;;;25.13;38.92;99732.41;5087318;28;20032;-73
2022/08/28 04:41:13;;;;;;;66.10;45.88;;;;;;;25.10;39.01;99736.38;5087351;28;20016;-71
2022/08/28 04:43:39;;;;;;;67.97;47.00;;;;;;;25.11;39.19;99731.78;5086862;28;20016;-72
2022/08/28 04:46:11;;;;;;;57.70;43.45;;;;;;;25.12;39.03;99733.44;5087187;28;20020;-71
2022/08/28 04:48:39;;;;;;;64.68;46.95;;;;;;;25.13;38.74;99741.38;5086464;28;20040;-72
2022/08/28 04:51:07;;;;;;;67.78;45.53;;;;;;;25.14;38.80;99734.06;5086976;28;20028;-69
2022/08/28 04:53:33;;;;;;;66.85;46.80;;;;;;;25.15;39.00;99727.63;5090588;28;20025;-71
2022/08/28 04:56:01;;;;;;;68.45;45.95;;;;;;;25.18;39.06;99729.91;5091049;28;20091;-71
2022/08/28 04:58:27;;;;;;;59.70;42.08;;;;;;;25.19;38.98;99734.28;5090710;28;20039;-71
2022/08/28 05:00:53;;;;;;;61.53;45.22;;;;;;;25.20;38.78;99735.94;5091056;28;20020;-70
2022/08/28 05:03:19;;;;;;;70.10;48.80;;;;;;;25.17;38.96;99730.94;5090929;28;20050;-70
2022/08/28 05:05:49;;;;;;;61.40;41.17;;;;;;;25.14;38.91;99732.22;5090867;28;20020;-71
2022/08/28 05:08:16;;;;;;;65.82;45.35;;;;;;;25.19;39.00;99725.31;5081710;28;20021;-69
2022/08/28 05:10:42;;;;;;;63.30;46.83;;;;;;;25.18;39.12;99735.31;5070777;28;20100;-69
2022/08/28 05:13:10;;;;;;;60.30;40.72;;;;;;;25.18;39.03;99727.19;5081130;28;20024;-69
2022/08/28 05:15:44;;;;;;;61.85;43.60;;;;;;;25.20;39.21;99730.53;5090325;28;20035;-71
2022/08/28 05:18:12;;;;;;;66.40;44.45;;;;;;;25.20;38.92;99721.56;5090628;28;20240;-72
2022/08/28 05:20:40;;;;;;;63.67;42.25;;;;;;;25.20;38.85;99716.13;5090487;28;20116;-71
2022/08/28 05:23:08;;;;;;;63.33;43.88;;;;;;;25.19;39.41;99718.03;5089992;28;20028;-70
2022/08/28 05:25:39;;;;;;;62.55;45.03;;;;;;;25.17;39.34;99714.69;5089803;28;20108;-69
2022/08/28 05:28:05;;;;;;;68.68;46.25;;;;;;;25.17;39.19;99709.28;5090451;28;20047;-69
2022/08/28 05:30:32;;;;;;;67.05;45.10;;;;;;;25.17;39.46;99708.44;5090507;28;20094;-71
2022/08/28 05:32:58;;;;;;;69.38;44.80;;;;;;;25.19;39.72;99711.75;5090014;28;20088;-69
2022/08/28 05:35:25;;;;;;;64.80;47.03;;;;;;;25.15;39.56;99700.53;5090075;28;20016;-72
2022/08/28 05:37:51;;;;;;;62.97;45.35;;;;;;;25.13;39.82;99698.06;5090189;28;20091;-71
2022/08/28 05:40:19;;;;;;;64.13;44.67;;;;;;;25.13;39.38;99703.47;5090165;28;20273;-70
2022/08/28 05:42:44;;;;;;;71.20;48.38;;;;;;;25.07;39.78;99703.50;5089980;28;20296;-72
2022/08/28 05:45:10;;;;;;;69.18;46.50;;;;;;;25.02;39.60;99698.69;5089785;28;20028;-72
2022/08/28 05:47:35;;;;;;;64.68;46.42;;;;;;;25.03;39.74;99699.53;5089964;28;20028;-70
2022/08/28 05:50:02;;;;;;;61.13;45.58;;;;;;;25.05;39.59;99694.75;5090028;28;20083;-69
2022/08/28 05:52:27;;;;;;;65.93;46.20;;;;;;;25.08;39.75;99691.59;5089216;28;20032;-70
2022/08/28 05:54:53;;;;;;;63.92;46.58;;;;;;;25.08;39.82;99694.28;5089461;28;20039;-71
2022/08/28 05:57:19;;;;;;;69.88;46.35;;;;;;;25.04;39.72;99685.78;5089379;28;20055;-69
2022/08/28 05:59:44;;;;;;;69.18;47.17;;;;;;;25.04;39.97;99683.06;5089478;28;20261;-70
2022/08/28 06:02:09;;;;;;;67.25;46.50;;;;;;;25.08;39.84;99684.31;5089879;28;20032;-70
2022/08/28 06:04:38;;;;;;;64.20;47.20;;;;;;;25.11;39.67;99677.63;5075573;28;20039;-69
2022/08/28 06:07:04;;;;;;;69.65;48.25;;;;;;;25.08;39.97;99672.63;5087039;28;20301;-69
2022/08/28 06:09:30;;;;;;;61.75;43.33;;;;;;;25.11;39.87;99677.63;5070198;28;20032;-72
2022/08/28 06:11:58;;;;;;;69.90;46.42;;;;;;;25.24;39.44;99687.59;5069647;28;20028;-70
2022/08/28 06:14:24;;;;;;;65.07;45.42;;;;;;;25.34;39.54;99670.91;5086945;28;20032;-72
2022/08/28 06:16:53;;;;;;;66.57;48.05;;;;;;;25.40;39.34;99672.72;5089060;28;20115;-72
2022/08/28 06:19:21;;;;;;;68.60;43.95;;;;;;;25.43;39.29;99675.03;5089158;28;20033;-71
2022/08/28 06:21:50;;;;;;;64.95;44.05;;;;;;;25.49;39.32;99673.34;5089553;28;20028;-70
2022/08/28 06:24:16;;;;;;;66.57;47.65;;;;;;;25.53;39.45;99669.16;5088726;28;20074;-71
2022/08/28 06:26:43;;;;;;;65.40;46.63;;;;;;;25.58;39.36;99661.22;5089389;28;20024;-71
2022/08/28 06:29:12;;;;;;;67.68;47.55;;;;;;;25.63;39.27;99668.72;5089141;28;20047;-71
2022/08/28 06:31:38;;;;;;;67.38;47.47;;;;;;;25.67;39.27;99669.91;5089344;28;20157;-73
2022/08/28 06:34:04;;;;;;;69.43;49.00;;;;;;;25.64;39.39;99657.63;5088915;28;20032;-70
2022/08/28 06:36:33;;;;;;;66.30;46.20;;;;;;;25.66;39.39;99665.56;5089205;28;20028;-70
2022/08/28 06:38:59;;;;;;;63.17;45.88;;;;;;;25.73;39.15;99664.44;5089093;28;20035;-70
2022/08/28 06:41:26;;;;;;;68.40;48.10;;;;;;;25.77;38.85;99669.44;5089119;28;20088;-71
2022/08/28 06:43:52;;;;;;;63.72;46.38;;;;;;;25.78;39.10;99665.69;5088611;28;20078;-70
2022/08/28 06:46:17;;;;;;;54.88;41.40;;;;;;;25.82;39.02;99672.34;5088813;28;20072;-71
2022/08/28 06:48:43;;;;;;;61.00;41.80;;;;;;;25.84;38.75;99671.06;5088806;28;20070;-73
2022/08/28 06:51:11;;;;;;;60.58;41.28;;;;;;;25.88;38.77;99668.78;5088957;28;20048;-71
2022/08/28 06:53:39;;;;;;;64.03;44.40;;;;;;;25.88;38.81;99666.06;5087064;28;20028;-72
2022/08/28 06:56:08;;;;;;;67.22;45.65;;;;;;;25.90;38.78;99669.34;5088721;28;20147;-72
2022/08/28 06:58:39;;;;;;;64.00;44.80;;;;;;;25.89;38.86;99668.53;5088432;28;20017;-71
2022/08/28 07:01:09;;;;;;;73.85;48.08;;;;;;;25.89;38.78;99662.28;5088692;28;20024;-71
2022/08/28 07:03:35;;;;;;;66.82;48.03;;;;;;;25.90;38.73;99670.22;5087601;28;20020;-72
2022/08/28 07:06:03;;;;;;;68.57;45.83;;;;;;;25.87;39.17;99659.78;5087687;28;20056;-71
2022/08/28 07:08:30;;;;;;;64.85;47.65;;;;;;;25.91;38.96;99665.59;5087960;28;20264;-71
2022/08/28 07:10:57;;;;;;;67.35;49.92;;;;;;;25.89;39.25;99663.13;5088558;28;20153;-71
2022/08/28 07:13:23;;;;;;;64.10;46.17;;;;;;;25.89;39.25;99665.84;5087959;28;20024;-72
2022/08/28 07:15:49;;;;;;;66.68;49.00;;;;;;;25.92;39.27;99661.84;5087876;28;20052;-72
2022/08/28 07:18:16;;;;;;;69.05;47.38;;;;;;;25.93;39.07;99662.69;5088289;28;20073;-72
2022/08/28 07:20:42;;;;;;;70.68;49.92;;;;;;;25.93;39.10;99668.94;5087938;28;20111;-71
2022/08/28 07:23:08;;;;;;;65.70;43.83;;;;;;;25.96;39.17;99664.94;5087666;28;20269;-70
2022/08/28 07:25:37;;;;;;;60.60;42.90;;;;;;;25.98;39.15;99663.69;5088008;28;20102;-70
2022/08/28 07:28:02;;;;;;;64.28;45.03;;;;;;;26.00;39.10;99660.75;5087987;28;20035;-71
2022/08/28 07:30:28;;;;;;;68.70;44.72;;;;;;;26.02;39.46;99661.38;5088121;28;20016;-72
2022/08/28 07:32:53;;;;;;;65.78;45.10;;;;;;;26.05;39.17;99658.22;5088000;28;20016;-72
2022/08/28 07:35:19;;;;;;;60.42;44.33;;;;;;;26.07;39.37;99649.84;5087759;28;20082;-70
2022/08/28 07:37:45;;;;;;;63.08;46.67;;;;;;;26.10;39.10;99654.84;5087496;28;20027;-70
2022/08/28 07:40:11;;;;;;;57.13;41.30;;;;;;;26.12;39.18;99667.16;5087861;28;20047;-72
2022/08/28 07:45:21;;;;;;;54.88;39.75;;;;;;;26.20;39.04;99666.03;5080837;28;20027;-70
2022/08/28 07:47:46;;;;;;;54.58;39.25;;;;;;;26.26;39.07;99667.88;5087162;28;20028;-69
2022/08/28 07:50:12;;;;;;;51.72;38.75;;;;;;;26.31;38.90;99667.22;5087267;28;20070;-71
2022/08/28 07:52:37;;;;;;;59.25;38.63;;;;;;;26.35;38.83;99665.72;5087715;28;20246;-70
2022/08/28 07:55:05;;;;;;;51.72;37.55;;;;;;;26.39;38.49;99658.81;5087444;28;20268;-69
2022/08/28 07:57:30;;;;;;;51.95;36.58;;;;;;;26.42;38.66;99663.78;5087282;28;20149;-70
2022/08/28 07:59:57;;;;;;;60.05;40.85;;;;;;;26.44;38.92;99661.69;5087212;28;20036;-71
2022/08/28 08:02:23;;;;;;;62.80;42.17;;;;;;;26.45;38.65;99654.38;5087604;28;20086;-71
2022/08/28 08:04:48;;;;;;;64.13;41.67;;;;;;;26.44;38.64;99653.53;5086518;28;20191;-72
2022/08/28 08:07:16;;;;;;;58.55;38.53;;;;;;;26.42;38.38;99658.34;5087465;28;20052;-69
2022/08/28 08:09:43;;;;;;;55.20;41.33;;;;;;;26.43;38.29;99656.47;5087455;28;20081;-70
2022/08/28 08:12:10;;;;;;;59.53;37.78;;;;;;;26.42;38.23;99661.06;5087569;28;20141;-70
2022/08/28 08:14:37;;;;;;;57.33;39.53;;;;;;;26.44;38.28;99663.56;5086793;28;20024;-72
2022/08/28 08:17:04;;;;;;;60.40;40.78;;;;;;;26.47;38.22;99655.81;5087568;28;20244;-70
2022/08/28 08:19:29;;;;;;;57.33;40.58;;;;;;;26.46;38.15;99656.88;5087094;28;20036;-71
2022/08/28 08:21:55;;;;;;;55.63;40.83;;;;;;;26.46;38.40;99659.56;5087455;28;20024;-72
2022/08/28 08:24:24;;;;;;;56.25;39.88;;;;;;;26.47;38.42;99652.28;5087365;28;20142;-72
2022/08/28 08:26:52;;;;;;;63.25;40.58;;;;;;;26.44;38.30;99653.53;5087858;28;20087;-73
2022/08/28 08:29:18;;;;;;;54.88;39.35;;;;;;;26.45;38.38;99655.19;5091354;28;20060;-71
2022/08/28 08:31:43;;;;;;;59.60;40.78;;;;;;;26.48;38.16;99660.19;5084612;28;20096;-70
2022/08/28 08:34:09;;;;;;;62.63;41.17;;;;;;;26.48;38.34;99660.19;5084028;28;20028;-70
2022/08/28 08:36:37;;;;;;;67.30;41.33;;;;;;;26.46;38.53;99661.47;5091375;28;20054;-72
2022/08/28 08:39:04;;;;;;;55.70;40.38;;;;;;;26.46;38.60;99661.47;5091130;28;20024;-71
2022/08/28 08:41:47;;;;;;;63.38;43.47;;;;;;;26.42;38.79;99652.91;5091435;28;20056;-73
2022/08/28 08:44:29;;;;;;;66.68;42.03;;;;;;;26.42;38.85;99650.22;5090849;28;20091;-73
2022/08/28 08:47:16;;;;;;;58.42;42.15;;;;;;;26.45;38.96;99648.97;5090992;28;20028;-72
2022/08/28 08:49:54;;;;;;;59.42;41.60;;;;;;;26.49;39.00;99651.00;5091183;28;20032;-72
2022/08/28 08:52:39;;;;;;;63.33;40.92;;;;;;;26.54;38.87;99644.06;5091134;28;20020;-71
2022/08/28 08:55:31;;;;;;;54.33;40.70;;;;;;;26.58;38.80;99637.13;5091113;28;20020;-73
2022/08/28 08:58:14;;;;;;;50.88;39.35;;;;;;;26.61;38.60;99637.53;5090526;28;20188;-72
2022/08/28 09:00:55;;;;;;;61.15;38.50;;;;;;;26.63;38.65;99640.00;5090799;28;20028;-72
2022/08/28 09:03:43;;;;;;;57.15;38.58;;;;;;;26.65;38.74;99638.72;5090953;28;20099;-72
2022/08/28 09:06:31;;;;;;;54.67;36.30;;;;;;;26.64;38.25;99637.06;5090951;28;20030;-72
2022/08/28 09:09:00;;;;;;;49.50;35.72;;;;;;;26.66;38.18;99637.66;5087180;28;20025;-72
2022/08/28 09:11:43;;;;;;;45.25;32.15;;;;;;;26.68;37.87;99634.75;5090856;28;20023;-73
2022/08/28 09:14:08;;;;;;;48.25;31.80;;;;;;;26.71;37.49;99636.16;5073195;28;20012;-73
2022/08/28 09:16:40;;;;;;;47.72;30.23;;;;;;;26.72;37.12;99638.66;5090367;28;20031;-71
2022/08/28 09:19:09;;;;;;;43.70;28.60;;;;;;;26.73;36.94;99629.44;5090452;28;20096;-70
2022/08/28 09:21:42;;;;;;;40.35;27.95;;;;;;;26.75;36.79;99640.09;5079998;28;20065;-72
2022/08/28 09:24:19;;;;;;;44.47;29.13;;;;;;;26.77;36.80;99625.25;5081473;28;20247;-70
2022/08/28 09:26:55;;;;;;;42.80;26.85;;;;;;;26.82;36.82;99637.34;5090266;28;20096;-74
2022/08/28 09:29:27;;;;;;;41.85;27.63;;;;;;;26.86;36.91;99633.09;5090040;28;20256;-73
2022/08/28 09:31:54;;;;;;;33.60;26.25;;;;;;;26.89;36.61;99622.66;5090527;28;20217;-72
2022/08/28 09:34:26;;;;;;;43.17;25.05;;;;;;;26.93;36.46;99625.72;5089820;28;20035;-74
2022/08/28 09:36:54;;;;;;;41.00;28.40;;;;;;;26.94;36.31;99625.50;5090632;28;20180;-71
2022/08/28 09:39:21;;;;;;;46.55;29.80;;;;;;;26.97;36.21;99629.66;5089832;28;20088;-70
2022/08/28 09:45:17;;;;;;;42.95;25.35;;;;;;;27.01;36.21;99628.13;5089922;28;20118;-72
2022/08/28 09:47:58;;;;;;;36.80;25.33;;;;;;;27.05;35.88;99623.09;5090005;28;20028;-71
2022/08/28 09:50:42;;;;;;;42.58;26.25;;;;;;;27.06;35.63;99628.28;5090169;28;20054;-73
2022/08/28 09:53:07;;;;;;;40.83;24.92;;;;;;;27.08;35.59;99622.63;5089586;28;20020;-71
2022/08/28 09:56:03;;;;;;;42.42;24.90;;;;;;;27.10;35.65;99620.50;5089779;28;20036;-73
2022/08/28 09:58:34;;;;;;;37.75;26.02;;;;;;;27.11;35.82;99617.56;5083495;28;20035;-70
2022/08/28 10:01:38;;;;;;;40.25;24.92;;;;;;;27.13;35.41;99614.63;5089900;28;20025;-71
2022/08/28 10:04:16;;;;;;;34.60;21.77;;;;;;;27.16;35.13;99610.59;5089035;28;20032;-72
2022/08/28 10:07:07;;;;;;;39.85;22.95;;;;;;;27.17;35.08;99606.84;5089739;28;20044;-72
2022/08/28 10:10:01;;;;;;;35.78;23.40;;;;;;;27.18;35.14;99603.06;5088918;28;20024;-72
2022/08/28 10:12:58;;;;;;;36.88;22.85;;;;;;;27.21;35.18;99599.91;5087970;28;20024;-72
2022/08/28 10:15:51;;;;;;;30.42;20.38;;;;;;;27.23;34.77;99600.50;5088022;28;20024;-71
2022/08/28 10:18:25;;;;;;;31.52;19.42;;;;;;;27.27;34.51;99596.28;5088087;28;20028;-71
2022/08/28 10:21:07;;;;;;;34.83;19.17;;;;;;;27.33;34.08;99594.53;5088490;28;20104;-74
2022/08/28 10:23:45;;;;;;;35.72;20.55;;;;;;;27.36;33.63;99602.19;5089639;28;20020;-73
2022/08/28 10:26:22;;;;;;;36.50;21.30;;;;;;;27.39;33.54;99602.59;5089478;28;20024;-73
2022/08/28 10:29:16;;;;;;;29.38;18.67;;;;;;;27.44;32.63;99598.31;5089059;28;20039;-71
2022/08/28 10:32:08;;;;;;;28.98;17.95;;;;;;;27.47;32.58;99601.47;5082090;28;20032;-72
2022/08/28 10:34:55;;;;;;;29.83;16.55;;;;;;;27.48;32.16;99592.25;5065222;28;20099;-71
2022/08/28 10:37:59;;;;;;;32.85;17.50;;;;;;;27.50;31.78;99587.38;5088702;28;20149;-71
2022/08/28 10:40:27;;;;;;;24.48;16.20;;;;;;;27.51;32.00;99580.91;5088556;28;20070;-71
2022/08/28 10:43:30;;;;;;;24.15;16.15;;;;;;;27.52;32.03;99587.19;5088592;28;20231;-73
2022/08/28 10:46:02;;;;;;;26.52;14.38;;;;;;;27.51;32.08;99580.09;5088971;28;20024;-71
2022/08/28 10:48:36;;;;;;;22.42;15.07;;;;;;;27.52;32.38;99584.47;5088705;28;20044;-70
2022/08/28 10:51:06;;;;;;;27.70;15.82;;;;;;;27.52;32.37;99585.28;5087057;28;20021;-70
2022/08/28 10:53:39;;;;;;;23.33;13.98;;;;;;;27.52;32.63;99581.75;5088209;28;20031;-71
2022/08/28 10:56:14;;;;;;;19.95;13.23;;;;;;;27.53;32.34;99580.69;5088536;28;20040;-71
2022/08/28 10:58:40;;;;;;;20.27;14.35;;;;;;;27.53;32.32;99584.22;5088758;28;20032;-73
2022/08/28 11:01:13;;;;;;;28.13;13.63;;;;;;;27.56;31.86;99581.03;5082665;28;20249;-71
2022/08/28 11:03:47;;;;;;;25.00;13.80;;;;;;;27.59;32.02;99577.03;5088691;28;20043;-69
2022/08/28 11:06:35;;;;;;;20.33;12.93;;;;;;;27.64;31.23;99569.00;5088129;28;20027;-71
2022/08/28 11:09:23;;;;;;;20.73;13.10;;;;;;;27.69;31.47;99573.75;5083163;28;20098;-72
2022/08/28 11:11:52;;;;;;;26.98;13.52;;;;;;;27.70;31.90;99570.81;5087082;28;20087;-70
2022/08/28 11:14:34;;;;;;;26.02;13.25;;;;;;;27.71;31.66;99558.03;5087453;28;20020;-73
2022/08/28 11:17:03;;;;;;;26.85;13.30;;;;;;;27.71;31.64;99561.59;5087381;28;20028;-73
2022/08/28 11:19:40;;;;;;;24.83;12.82;;;;;;;27.72;31.28;99543.38;5086358;28;20048;-70
2022/08/28 11:22:22;;;;;;;19.73;13.18;;;;;;;27.77;31.03;99542.66;5088243;28;20127;-72
2022/08/28 11:25:02;;;;;;;18.80;13.27;;;;;;;27.83;30.84;99544.47;5087617;28;20264;-71
2022/08/28 11:27:35;;;;;;;20.08;11.88;;;;;;;27.86;30.59;99544.00;5088406;28;20016;-70
2022/08/28 11:30:15;;;;;;;22.80;13.55;;;;;;;27.90;30.23;99533.47;5070116;28;20262;-69
2022/08/28 11:32:49;;;;;;;27.40;13.07;;;;;;;27.94;29.73;99530.03;5068045;28;20029;-71
2022/08/28 11:35:37;;;;;;;20.25;12.80;;;;;;;27.99;29.52;99538.31;5077395;28;20058;-72
2022/08/28 11:38:03;;;;;;;28.77;12.10;;;;;;;27.99;29.62;99537.50;5087714;28;20028;-73
2022/08/28 11:40:31;;;;;;;21.52;11.73;;;;;;;27.98;29.38;99533.94;5087868;28;20046;-70